sensor_id;sensor_type;location;lat;lon;timestamp;P1;durP1;ratioP1;P2;durP2;ratioP2
24873;SDS011;12945;42.648;23.370;2023-06-26T00:00:21;32.67;;;25.30;;
24873;SDS011;12945;42.648;23.370;2023-06-26T00:02:47;35.20;;;26.73;;
24873;SDS011;12945;42.648;23.370;2023-06-26T00:05:12;37.97;;;26.27;;
24873;SDS011;12945;42.648;23.370;2023-06-26T00:07:38;33.40;;;24.50;;
24873;SDS011;12945;42.648;23.370;2023-06-26T00:10:04;36.45;;;25.58;;
24873;SDS011;12945;42.648;23.370;2023-06-26T00:12:29;32.60;;;25.15;;
24873;SDS011;12945;42.648;23.370;2023-06-26T00:14:55;35.22;;;24.13;;
24873;SDS011;12945;42.648;23.370;2023-06-26T00:17:20;26.90;;;22.05;;
24873;SDS011;12945;42.648;23.370;2023-06-26T00:19:46;39.35;;;24.60;;
24873;SDS011;12945;42.648;23.370;2023-06-26T00:22:11;32.35;;;23.50;;
24873;SDS011;12945;42.648;23.370;2023-06-26T00:24:37;31.83;;;23.75;;
24873;SDS011;12945;42.648;23.370;2023-06-26T00:27:02;34.58;;;22.60;;
24873;SDS011;12945;42.648;23.370;2023-06-26T00:29:27;31.17;;;21.90;;
24873;SDS011;12945;42.648;23.370;2023-06-26T00:31:53;29.95;;;22.70;;
24873;SDS011;12945;42.648;23.370;2023-06-26T00:34:18;27.23;;;20.88;;
24873;SDS011;12945;42.648;23.370;2023-06-26T00:36:44;27.90;;;21.00;;
24873;SDS011;12945;42.648;23.370;2023-06-26T00:39:10;24.30;;;20.48;;
24873;SDS011;12945;42.648;23.370;2023-06-26T00:41:36;28.75;;;20.90;;
24873;SDS011;12945;42.648;23.370;2023-06-26T00:44:01;26.80;;;21.35;;
24873;SDS011;12945;42.648;23.370;2023-06-26T00:46:27;24.48;;;20.23;;
24873;SDS011;12945;42.648;23.370;2023-06-26T00:48:52;26.20;;;19.40;;
24873;SDS011;12945;42.648;23.370;2023-06-26T00:51:17;23.60;;;18.48;;
24873;SDS011;12945;42.648;23.370;2023-06-26T00:53:43;28.25;;;19.85;;
24873;SDS011;12945;42.648;23.370;2023-06-26T00:56:09;21.17;;;18.20;;
24873;SDS011;12945;42.648;23.370;2023-06-26T00:58:34;25.48;;;19.35;;
24873;SDS011;12945;42.648;23.370;2023-06-26T01:01:00;28.23;;;19.00;;
24873;SDS011;12945;42.648;23.370;2023-06-26T01:03:26;22.30;;;17.95;;
24873;SDS011;12945;42.648;23.370;2023-06-26T01:05:52;24.90;;;18.20;;
24873;SDS011;12945;42.648;23.370;2023-06-26T01:08:17;23.27;;;18.50;;
24873;SDS011;12945;42.648;23.370;2023-06-26T01:10:43;24.92;;;17.90;;
24873;SDS011;12945;42.648;23.370;2023-06-26T01:13:08;25.58;;;18.08;;
24873;SDS011;12945;42.648;23.370;2023-06-26T01:15:34;23.15;;;17.77;;
24873;SDS011;12945;42.648;23.370;2023-06-26T01:17:59;27.83;;;17.67;;
24873;SDS011;12945;42.648;23.370;2023-06-26T01:20:29;22.75;;;17.20;;
24873;SDS011;12945;42.648;23.370;2023-06-26T01:25:33;28.27;;;16.88;;
24873;SDS011;12945;42.648;23.370;2023-06-26T01:28:04;23.05;;;17.23;;
24873;SDS011;12945;42.648;23.370;2023-06-26T01:30:30;23.77;;;17.58;;
24873;SDS011;12945;42.648;23.370;2023-06-26T01:32:56;23.52;;;17.85;;
24873;SDS011;12945;42.648;23.370;2023-06-26T01:35:21;20.75;;;17.15;;
24873;SDS011;12945;42.648;23.370;2023-06-26T01:37:47;22.08;;;17.58;;
24873;SDS011;12945;42.648;23.370;2023-06-26T01:40:12;27.45;;;17.27;;
24873;SDS011;12945;42.648;23.370;2023-06-26T01:42:38;24.60;;;17.40;;
24873;SDS011;12945;42.648;23.370;2023-06-26T01:45:18;22.80;;;17.30;;
24873;SDS011;12945;42.648;23.370;2023-06-26T01:47:49;24.90;;;17.30;;
24873;SDS011;12945;42.648;23.370;2023-06-26T01:50:21;25.27;;;18.15;;
24873;SDS011;12945;42.648;23.370;2023-06-26T01:58:07;26.98;;;18.52;;
24873;SDS011;12945;42.648;23.370;2023-06-26T02:00:33;25.80;;;18.33;;
24873;SDS011;12945;42.648;23.370;2023-06-26T02:02:59;25.30;;;18.67;;
24873;SDS011;12945;42.648;23.370;2023-06-26T02:05:25;23.08;;;18.02;;
24873;SDS011;12945;42.648;23.370;2023-06-26T02:07:50;23.17;;;17.77;;
24873;SDS011;12945;42.648;23.370;2023-06-26T02:10:16;22.75;;;17.48;;
24873;SDS011;12945;42.648;23.370;2023-06-26T02:12:42;23.50;;;17.38;;
24873;SDS011;12945;42.648;23.370;2023-06-26T02:15:07;22.33;;;17.85;;
24873;SDS011;12945;42.648;23.370;2023-06-26T02:17:33;22.85;;;17.00;;
24873;SDS011;12945;42.648;23.370;2023-06-26T02:19:58;21.60;;;18.00;;
24873;SDS011;12945;42.648;23.370;2023-06-26T02:22:24;23.48;;;17.88;;
24873;SDS011;12945;42.648;23.370;2023-06-26T02:24:49;24.63;;;18.67;;
24873;SDS011;12945;42.648;23.370;2023-06-26T02:27:14;23.23;;;17.45;;
24873;SDS011;12945;42.648;23.370;2023-06-26T02:29:40;23.05;;;18.90;;
24873;SDS011;12945;42.648;23.370;2023-06-26T02:32:06;24.60;;;18.50;;
24873;SDS011;12945;42.648;23.370;2023-06-26T02:34:31;28.98;;;18.15;;
24873;SDS011;12945;42.648;23.370;2023-06-26T02:36:57;23.20;;;17.52;;
24873;SDS011;12945;42.648;23.370;2023-06-26T02:39:23;22.08;;;18.83;;
24873;SDS011;12945;42.648;23.370;2023-06-26T02:41:49;23.33;;;18.63;;
24873;SDS011;12945;42.648;23.370;2023-06-26T02:44:14;27.67;;;19.55;;
24873;SDS011;12945;42.648;23.370;2023-06-26T02:46:39;22.83;;;19.15;;
24873;SDS011;12945;42.648;23.370;2023-06-26T02:49:05;23.50;;;19.80;;
24873;SDS011;12945;42.648;23.370;2023-06-26T02:51:31;25.67;;;20.95;;
24873;SDS011;12945;42.648;23.370;2023-06-26T02:53:57;31.10;;;20.95;;
24873;SDS011;12945;42.648;23.370;2023-06-26T02:56:22;26.65;;;21.05;;
24873;SDS011;12945;42.648;23.370;2023-06-26T02:58:48;26.92;;;21.40;;
24873;SDS011;12945;42.648;23.370;2023-06-26T03:01:13;26.33;;;21.83;;
24873;SDS011;12945;42.648;23.370;2023-06-26T03:03:40;29.60;;;23.48;;
24873;SDS011;12945;42.648;23.370;2023-06-26T03:06:06;30.23;;;22.90;;
24873;SDS011;12945;42.648;23.370;2023-06-26T03:08:32;29.25;;;21.98;;
24873;SDS011;12945;42.648;23.370;2023-06-26T03:10:57;31.52;;;22.15;;
24873;SDS011;12945;42.648;23.370;2023-06-26T03:13:23;30.42;;;23.98;;
24873;SDS011;12945;42.648;23.370;2023-06-26T03:15:48;28.08;;;24.27;;
24873;SDS011;12945;42.648;23.370;2023-06-26T03:18:13;32.88;;;23.98;;
24873;SDS011;12945;42.648;23.370;2023-06-26T03:20:39;27.15;;;22.60;;
24873;SDS011;12945;42.648;23.370;2023-06-26T03:23:04;27.15;;;22.85;;
24873;SDS011;12945;42.648;23.370;2023-06-26T03:25:29;35.13;;;23.38;;
24873;SDS011;12945;42.648;23.370;2023-06-26T03:27:55;30.33;;;24.10;;
24873;SDS011;12945;42.648;23.370;2023-06-26T03:30:20;30.65;;;24.25;;
24873;SDS011;12945;42.648;23.370;2023-06-26T03:32:45;32.70;;;24.67;;
24873;SDS011;12945;42.648;23.370;2023-06-26T03:35:11;31.55;;;25.08;;
24873;SDS011;12945;42.648;23.370;2023-06-26T03:37:36;29.42;;;25.17;;
24873;SDS011;12945;42.648;23.370;2023-06-26T03:40:01;29.92;;;23.48;;
24873;SDS011;12945;42.648;23.370;2023-06-26T03:42:29;32.63;;;24.50;;
24873;SDS011;12945;42.648;23.370;2023-06-26T03:44:54;31.98;;;23.75;;
24873;SDS011;12945;42.648;23.370;2023-06-26T03:47:20;27.30;;;23.58;;
24873;SDS011;12945;42.648;23.370;2023-06-26T03:49:45;28.60;;;23.33;;
24873;SDS011;12945;42.648;23.370;2023-06-26T03:52:11;29.45;;;24.30;;
24873;SDS011;12945;42.648;23.370;2023-06-26T03:54:36;26.95;;;24.02;;
24873;SDS011;12945;42.648;23.370;2023-06-26T03:57:01;30.30;;;24.70;;
24873;SDS011;12945;42.648;23.370;2023-06-26T03:59:27;30.17;;;23.52;;
24873;SDS011;12945;42.648;23.370;2023-06-26T04:01:52;29.42;;;24.25;;
24873;SDS011;12945;42.648;23.370;2023-06-26T04:04:18;31.52;;;25.23;;
24873;SDS011;12945;42.648;23.370;2023-06-26T04:06:43;31.58;;;24.58;;
24873;SDS011;12945;42.648;23.370;2023-06-26T04:09:08;30.67;;;23.75;;
24873;SDS011;12945;42.648;23.370;2023-06-26T04:11:35;29.00;;;23.63;;
24873;SDS011;12945;42.648;23.370;2023-06-26T04:14:00;30.65;;;23.73;;
24873;SDS011;12945;42.648;23.370;2023-06-26T04:16:25;28.17;;;23.02;;
24873;SDS011;12945;42.648;23.370;2023-06-26T04:18:51;25.52;;;22.15;;
24873;SDS011;12945;42.648;23.370;2023-06-26T04:21:17;26.33;;;22.15;;
24873;SDS011;12945;42.648;23.370;2023-06-26T04:23:42;26.90;;;21.80;;
24873;SDS011;12945;42.648;23.370;2023-06-26T04:26:08;28.45;;;20.38;;
24873;SDS011;12945;42.648;23.370;2023-06-26T04:28:34;26.63;;;20.70;;
24873;SDS011;12945;42.648;23.370;2023-06-26T04:30:59;29.35;;;20.45;;
24873;SDS011;12945;42.648;23.370;2023-06-26T04:33:25;27.08;;;19.90;;
24873;SDS011;12945;42.648;23.370;2023-06-26T04:35:51;28.08;;;19.90;;
24873;SDS011;12945;42.648;23.370;2023-06-26T04:38:16;27.52;;;20.13;;
24873;SDS011;12945;42.648;23.370;2023-06-26T04:40:41;25.48;;;19.52;;
24873;SDS011;12945;42.648;23.370;2023-06-26T04:43:07;21.58;;;19.13;;
24873;SDS011;12945;42.648;23.370;2023-06-26T04:45:32;30.73;;;20.10;;
24873;SDS011;12945;42.648;23.370;2023-06-26T04:47:57;25.33;;;19.33;;
24873;SDS011;12945;42.648;23.370;2023-06-26T04:50:25;26.65;;;18.90;;
24873;SDS011;12945;42.648;23.370;2023-06-26T04:52:51;22.35;;;19.52;;
24873;SDS011;12945;42.648;23.370;2023-06-26T04:55:16;23.00;;;19.50;;
24873;SDS011;12945;42.648;23.370;2023-06-26T04:57:42;24.73;;;19.38;;
24873;SDS011;12945;42.648;23.370;2023-06-26T05:00:08;25.52;;;20.50;;
24873;SDS011;12945;42.648;23.370;2023-06-26T05:02:36;24.13;;;20.67;;
24873;SDS011;12945;42.648;23.370;2023-06-26T05:05:01;27.77;;;21.00;;
24873;SDS011;12945;42.648;23.370;2023-06-26T05:07:26;23.90;;;19.80;;
24873;SDS011;12945;42.648;23.370;2023-06-26T05:09:52;23.63;;;21.13;;
24873;SDS011;12945;42.648;23.370;2023-06-26T05:12:17;27.60;;;20.25;;
24873;SDS011;12945;42.648;23.370;2023-06-26T05:14:42;27.45;;;20.75;;
24873;SDS011;12945;42.648;23.370;2023-06-26T05:17:08;27.15;;;20.15;;
24873;SDS011;12945;42.648;23.370;2023-06-26T05:19:33;24.90;;;20.58;;
24873;SDS011;12945;42.648;23.370;2023-06-26T05:21:58;24.95;;;19.90;;
24873;SDS011;12945;42.648;23.370;2023-06-26T05:24:26;25.65;;;20.00;;
24873;SDS011;12945;42.648;23.370;2023-06-26T05:26:52;26.63;;;19.75;;
24873;SDS011;12945;42.648;23.370;2023-06-26T05:29:18;29.33;;;19.90;;
24873;SDS011;12945;42.648;23.370;2023-06-26T05:31:43;22.58;;;18.67;;
24873;SDS011;12945;42.648;23.370;2023-06-26T05:34:10;24.15;;;18.33;;
24873;SDS011;12945;42.648;23.370;2023-06-26T05:36:35;23.52;;;19.08;;
24873;SDS011;12945;42.648;23.370;2023-06-26T05:39:01;23.25;;;18.85;;
24873;SDS011;12945;42.648;23.370;2023-06-26T05:41:27;27.35;;;18.88;;
24873;SDS011;12945;42.648;23.370;2023-06-26T05:43:53;24.98;;;18.80;;
24873;SDS011;12945;42.648;23.370;2023-06-26T05:46:19;21.17;;;17.58;;
24873;SDS011;12945;42.648;23.370;2023-06-26T05:48:45;26.58;;;18.63;;
24873;SDS011;12945;42.648;23.370;2023-06-26T05:51:10;20.73;;;17.67;;
24873;SDS011;12945;42.648;23.370;2023-06-26T05:53:35;23.05;;;17.20;;
24873;SDS011;12945;42.648;23.370;2023-06-26T05:56:01;21.40;;;16.90;;
24873;SDS011;12945;42.648;23.370;2023-06-26T05:58:26;22.52;;;17.20;;
24873;SDS011;12945;42.648;23.370;2023-06-26T06:00:52;20.38;;;16.55;;
24873;SDS011;12945;42.648;23.370;2023-06-26T06:03:18;26.63;;;17.75;;
24873;SDS011;12945;42.648;23.370;2023-06-26T06:05:43;20.02;;;17.83;;
24873;SDS011;12945;42.648;23.370;2023-06-26T06:08:09;22.88;;;17.52;;
24873;SDS011;12945;42.648;23.370;2023-06-26T06:10:34;21.08;;;16.98;;
24873;SDS011;12945;42.648;23.370;2023-06-26T06:12:59;25.63;;;17.30;;
24873;SDS011;12945;42.648;23.370;2023-06-26T06:15:25;24.80;;;16.25;;
24873;SDS011;12945;42.648;23.370;2023-06-26T06:17:50;22.42;;;16.60;;
24873;SDS011;12945;42.648;23.370;2023-06-26T06:20:16;20.95;;;15.38;;
24873;SDS011;12945;42.648;23.370;2023-06-26T06:22:41;21.02;;;16.10;;
24873;SDS011;12945;42.648;23.370;2023-06-26T06:25:07;20.38;;;16.95;;
24873;SDS011;12945;42.648;23.370;2023-06-26T06:27:32;21.30;;;15.05;;
24873;SDS011;12945;42.648;23.370;2023-06-26T06:29:57;19.25;;;14.93;;
24873;SDS011;12945;42.648;23.370;2023-06-26T06:32:23;20.65;;;16.15;;
24873;SDS011;12945;42.648;23.370;2023-06-26T06:34:48;21.73;;;15.52;;
24873;SDS011;12945;42.648;23.370;2023-06-26T06:37:13;23.45;;;16.00;;
24873;SDS011;12945;42.648;23.370;2023-06-26T06:39:39;18.38;;;16.10;;
24873;SDS011;12945;42.648;23.370;2023-06-26T06:42:04;17.00;;;15.20;;
24873;SDS011;12945;42.648;23.370;2023-06-26T06:44:30;20.58;;;14.55;;
24873;SDS011;12945;42.648;23.370;2023-06-26T06:46:58;20.48;;;16.08;;
24873;SDS011;12945;42.648;23.370;2023-06-26T06:49:24;21.48;;;14.38;;
24873;SDS011;12945;42.648;23.370;2023-06-26T06:51:49;15.32;;;13.55;;
24873;SDS011;12945;42.648;23.370;2023-06-26T06:54:17;21.17;;;14.13;;
24873;SDS011;12945;42.648;23.370;2023-06-26T06:56:43;17.10;;;13.30;;
24873;SDS011;12945;42.648;23.370;2023-06-26T06:59:08;17.92;;;13.90;;
24873;SDS011;12945;42.648;23.370;2023-06-26T07:01:34;15.80;;;12.48;;
24873;SDS011;12945;42.648;23.370;2023-06-26T07:03:59;18.45;;;12.75;;
24873;SDS011;12945;42.648;23.370;2023-06-26T07:06:24;12.63;;;11.20;;
24873;SDS011;12945;42.648;23.370;2023-06-26T07:08:49;15.57;;;11.63;;
24873;SDS011;12945;42.648;23.370;2023-06-26T07:11:15;13.07;;;11.68;;
24873;SDS011;12945;42.648;23.370;2023-06-26T07:13:41;12.48;;;11.18;;
24873;SDS011;12945;42.648;23.370;2023-06-26T07:16:06;15.75;;;10.13;;
24873;SDS011;12945;42.648;23.370;2023-06-26T07:18:31;15.63;;;9.52;;
24873;SDS011;12945;42.648;23.370;2023-06-26T07:20:56;11.73;;;9.10;;
24873;SDS011;12945;42.648;23.370;2023-06-26T07:23:22;13.80;;;8.48;;
24873;SDS011;12945;42.648;23.370;2023-06-26T07:25:48;12.27;;;9.07;;
24873;SDS011;12945;42.648;23.370;2023-06-26T07:28:13;14.55;;;10.07;;
24873;SDS011;12945;42.648;23.370;2023-06-26T07:30:38;11.88;;;9.23;;
24873;SDS011;12945;42.648;23.370;2023-06-26T07:33:04;11.27;;;8.90;;
24873;SDS011;12945;42.648;23.370;2023-06-26T07:35:29;12.15;;;8.70;;
24873;SDS011;12945;42.648;23.370;2023-06-26T07:37:54;11.07;;;8.50;;
24873;SDS011;12945;42.648;23.370;2023-06-26T07:40:20;9.70;;;8.60;;
24873;SDS011;12945;42.648;23.370;2023-06-26T07:42:45;11.38;;;8.15;;
24873;SDS011;12945;42.648;23.370;2023-06-26T07:45:11;12.15;;;8.15;;
24873;SDS011;12945;42.648;23.370;2023-06-26T09:36:19;10.55;;;6.07;;
24873;SDS011;12945;42.648;23.370;2023-06-26T09:38:46;8.55;;;5.75;;
24873;SDS011;12945;42.648;23.370;2023-06-26T09:41:12;9.27;;;5.80;;
24873;SDS011;12945;42.648;23.370;2023-06-26T09:43:47;7.78;;;5.70;;
24873;SDS011;12945;42.648;23.370;2023-06-26T09:49:09;8.32;;;6.20;;
24873;SDS011;12945;42.648;23.370;2023-06-26T09:54:17;10.32;;;6.50;;
24873;SDS011;12945;42.648;23.370;2023-06-26T09:56:45;7.07;;;5.93;;
24873;SDS011;12945;42.648;23.370;2023-06-26T09:59:11;10.38;;;6.78;;
24873;SDS011;12945;42.648;23.370;2023-06-26T10:04:42;11.10;;;7.38;;
24873;SDS011;12945;42.648;23.370;2023-06-26T10:09:43;13.70;;;6.55;;
24873;SDS011;12945;42.648;23.370;2023-06-26T10:14:47;9.90;;;6.47;;
24873;SDS011;12945;42.648;23.370;2023-06-26T10:17:15;9.57;;;6.25;;
24873;SDS011;12945;42.648;23.370;2023-06-26T10:19:42;9.98;;;6.72;;
24873;SDS011;12945;42.648;23.370;2023-06-26T10:22:08;14.38;;;6.78;;
24873;SDS011;12945;42.648;23.370;2023-06-26T10:24:35;11.70;;;6.65;;
24873;SDS011;12945;42.648;23.370;2023-06-26T10:27:43;11.25;;;7.00;;
24873;SDS011;12945;42.648;23.370;2023-06-26T10:30:09;10.18;;;6.57;;
24873;SDS011;12945;42.648;23.370;2023-06-26T10:32:36;9.02;;;5.50;;
24873;SDS011;12945;42.648;23.370;2023-06-26T10:35:02;9.43;;;6.38;;
24873;SDS011;12945;42.648;23.370;2023-06-26T10:37:44;8.65;;;6.18;;
24873;SDS011;12945;42.648;23.370;2023-06-26T10:40:10;8.32;;;6.47;;
24873;SDS011;12945;42.648;23.370;2023-06-26T10:42:36;13.30;;;6.00;;
24873;SDS011;12945;42.648;23.370;2023-06-26T10:47:39;13.93;;;6.68;;
24873;SDS011;12945;42.648;23.370;2023-06-26T10:55:34;8.40;;;6.00;;
24873;SDS011;12945;42.648;23.370;2023-06-26T10:57:59;9.93;;;6.10;;
24873;SDS011;12945;42.648;23.370;2023-06-26T11:00:25;8.27;;;6.60;;
24873;SDS011;12945;42.648;23.370;2023-06-26T11:02:51;10.15;;;7.20;;
24873;SDS011;12945;42.648;23.370;2023-06-26T11:05:23;9.07;;;6.57;;
24873;SDS011;12945;42.648;23.370;2023-06-26T11:08:05;12.43;;;6.45;;
24873;SDS011;12945;42.648;23.370;2023-06-26T11:10:48;9.88;;;6.65;;
24873;SDS011;12945;42.648;23.370;2023-06-26T11:13:13;9.38;;;7.15;;
24873;SDS011;12945;42.648;23.370;2023-06-26T11:15:39;12.95;;;6.93;;
24873;SDS011;12945;42.648;23.370;2023-06-26T11:18:07;11.95;;;7.20;;
24873;SDS011;12945;42.648;23.370;2023-06-26T11:20:32;11.60;;;6.88;;
24873;SDS011;12945;42.648;23.370;2023-06-26T11:22:58;7.28;;;5.65;;
24873;SDS011;12945;42.648;23.370;2023-06-26T11:25:23;9.32;;;6.43;;
24873;SDS011;12945;42.648;23.370;2023-06-26T11:27:49;13.48;;;6.13;;
24873;SDS011;12945;42.648;23.370;2023-06-26T11:30:24;9.38;;;6.82;;
24873;SDS011;12945;42.648;23.370;2023-06-26T11:32:49;20.10;;;6.68;;
24873;SDS011;12945;42.648;23.370;2023-06-26T11:35:24;12.38;;;6.22;;
24873;SDS011;12945;42.648;23.370;2023-06-26T11:37:55;10.90;;;6.90;;
24873;SDS011;12945;42.648;23.370;2023-06-26T11:40:23;8.07;;;6.75;;
24873;SDS011;12945;42.648;23.370;2023-06-26T11:42:52;13.05;;;6.57;;
24873;SDS011;12945;42.648;23.370;2023-06-26T11:45:18;10.10;;;6.43;;
24873;SDS011;12945;42.648;23.370;2023-06-26T11:47:44;7.32;;;6.25;;
24873;SDS011;12945;42.648;23.370;2023-06-26T11:50:14;15.48;;;6.20;;
24873;SDS011;12945;42.648;23.370;2023-06-26T11:52:41;8.85;;;6.30;;
24873;SDS011;12945;42.648;23.370;2023-06-26T11:55:06;8.30;;;5.80;;
24873;SDS011;12945;42.648;23.370;2023-06-26T11:57:32;8.35;;;5.85;;
24873;SDS011;12945;42.648;23.370;2023-06-26T11:59:57;12.23;;;6.32;;
24873;SDS011;12945;42.648;23.370;2023-06-26T12:02:22;8.18;;;5.90;;
24873;SDS011;12945;42.648;23.370;2023-06-26T12:04:48;8.80;;;6.05;;
24873;SDS011;12945;42.648;23.370;2023-06-26T12:07:14;10.30;;;6.35;;
24873;SDS011;12945;42.648;23.370;2023-06-26T12:09:41;10.45;;;6.43;;
24873;SDS011;12945;42.648;23.370;2023-06-26T12:12:07;10.32;;;6.03;;
24873;SDS011;12945;42.648;23.370;2023-06-26T12:14:32;8.00;;;6.35;;
24873;SDS011;12945;42.648;23.370;2023-06-26T12:17:05;11.13;;;5.80;;
24873;SDS011;12945;42.648;23.370;2023-06-26T12:19:30;10.05;;;7.00;;
24873;SDS011;12945;42.648;23.370;2023-06-26T12:21:57;11.93;;;5.53;;
24873;SDS011;12945;42.648;23.370;2023-06-26T12:24:23;5.93;;;5.32;;
24873;SDS011;12945;42.648;23.370;2023-06-26T12:26:52;6.97;;;5.97;;
24873;SDS011;12945;42.648;23.370;2023-06-26T12:29:24;8.50;;;6.57;;
24873;SDS011;12945;42.648;23.370;2023-06-26T12:31:53;8.52;;;6.32;;
24873;SDS011;12945;42.648;23.370;2023-06-26T12:34:20;8.02;;;5.78;;
24873;SDS011;12945;42.648;23.370;2023-06-26T12:36:48;10.68;;;5.93;;
24873;SDS011;12945;42.648;23.370;2023-06-26T12:39:15;6.05;;;5.45;;
24873;SDS011;12945;42.648;23.370;2023-06-26T12:44:26;7.78;;;5.50;;
24873;SDS011;12945;42.648;23.370;2023-06-26T12:46:56;7.82;;;5.25;;
24873;SDS011;12945;42.648;23.370;2023-06-26T12:49:28;8.13;;;5.25;;
24873;SDS011;12945;42.648;23.370;2023-06-26T12:51:54;6.32;;;5.25;;
24873;SDS011;12945;42.648;23.370;2023-06-26T12:54:19;6.38;;;5.60;;
24873;SDS011;12945;42.648;23.370;2023-06-26T12:56:45;8.82;;;6.03;;
24873;SDS011;12945;42.648;23.370;2023-06-26T12:59:10;8.45;;;6.13;;
24873;SDS011;12945;42.648;23.370;2023-06-26T13:01:36;9.10;;;6.47;;
24873;SDS011;12945;42.648;23.370;2023-06-26T13:04:01;8.18;;;6.40;;
24873;SDS011;12945;42.648;23.370;2023-06-26T13:06:28;11.25;;;6.55;;
24873;SDS011;12945;42.648;23.370;2023-06-26T13:08:53;8.90;;;6.65;;
24873;SDS011;12945;42.648;23.370;2023-06-26T13:11:19;8.35;;;6.25;;
24873;SDS011;12945;42.648;23.370;2023-06-26T13:13:44;8.10;;;6.07;;
24873;SDS011;12945;42.648;23.370;2023-06-26T13:16:10;8.18;;;6.70;;
24873;SDS011;12945;42.648;23.370;2023-06-26T13:18:35;11.80;;;7.00;;
24873;SDS011;12945;42.648;23.370;2023-06-26T13:21:01;9.33;;;6.97;;
24873;SDS011;12945;42.648;23.370;2023-06-26T13:23:26;9.30;;;7.18;;
24873;SDS011;12945;42.648;23.370;2023-06-26T13:25:52;8.18;;;6.38;;
24873;SDS011;12945;42.648;23.370;2023-06-26T13:28:17;10.38;;;7.18;;
24873;SDS011;12945;42.648;23.370;2023-06-26T13:30:43;11.05;;;7.22;;
24873;SDS011;12945;42.648;23.370;2023-06-26T13:33:09;8.57;;;6.30;;
24873;SDS011;12945;42.648;23.370;2023-06-26T13:35:35;9.13;;;6.40;;
24873;SDS011;12945;42.648;23.370;2023-06-26T13:38:01;8.90;;;6.35;;
24873;SDS011;12945;42.648;23.370;2023-06-26T13:40:26;12.30;;;6.85;;
24873;SDS011;12945;42.648;23.370;2023-06-26T13:42:51;8.90;;;6.35;;
24873;SDS011;12945;42.648;23.370;2023-06-26T13:45:17;9.80;;;6.30;;
24873;SDS011;12945;42.648;23.370;2023-06-26T13:47:42;13.25;;;6.10;;
24873;SDS011;12945;42.648;23.370;2023-06-26T13:50:08;8.15;;;5.75;;
24873;SDS011;12945;42.648;23.370;2023-06-26T13:52:34;6.90;;;6.22;;
24873;SDS011;12945;42.648;23.370;2023-06-26T13:54:59;9.38;;;6.82;;
24873;SDS011;12945;42.648;23.370;2023-06-26T13:57:25;10.47;;;6.77;;
24873;SDS011;12945;42.648;23.370;2023-06-26T13:59:52;10.85;;;6.38;;
24873;SDS011;12945;42.648;23.370;2023-06-26T14:02:18;13.88;;;6.55;;
24873;SDS011;12945;42.648;23.370;2023-06-26T14:04:43;8.95;;;6.20;;
24873;SDS011;12945;42.648;23.370;2023-06-26T14:07:08;9.18;;;6.50;;
24873;SDS011;12945;42.648;23.370;2023-06-26T14:09:34;9.38;;;6.45;;
24873;SDS011;12945;42.648;23.370;2023-06-26T14:11:59;8.77;;;6.45;;
24873;SDS011;12945;42.648;23.370;2023-06-26T14:14:25;10.25;;;6.57;;
24873;SDS011;12945;42.648;23.370;2023-06-26T14:16:50;12.27;;;7.18;;
24873;SDS011;12945;42.648;23.370;2023-06-26T14:19:16;8.38;;;6.57;;
24873;SDS011;12945;42.648;23.370;2023-06-26T14:21:42;13.05;;;7.18;;
24873;SDS011;12945;42.648;23.370;2023-06-26T14:24:08;10.40;;;6.43;;
24873;SDS011;12945;42.648;23.370;2023-06-26T14:26:34;7.00;;;6.30;;
24873;SDS011;12945;42.648;23.370;2023-06-26T14:28:59;8.27;;;6.28;;
24873;SDS011;12945;42.648;23.370;2023-06-26T14:31:25;7.47;;;6.68;;
24873;SDS011;12945;42.648;23.370;2023-06-26T14:33:50;13.25;;;7.07;;
24873;SDS011;12945;42.648;23.370;2023-06-26T14:36:18;11.05;;;6.90;;
24873;SDS011;12945;42.648;23.370;2023-06-26T14:38:44;10.00;;;6.53;;
24873;SDS011;12945;42.648;23.370;2023-06-26T14:41:09;8.13;;;6.35;;
24873;SDS011;12945;42.648;23.370;2023-06-26T14:43:35;8.50;;;6.50;;
24873;SDS011;12945;42.648;23.370;2023-06-26T14:46:00;13.38;;;7.63;;
24873;SDS011;12945;42.648;23.370;2023-06-26T14:48:25;9.63;;;7.45;;
24873;SDS011;12945;42.648;23.370;2023-06-26T14:50:51;10.65;;;7.15;;
24873;SDS011;12945;42.648;23.370;2023-06-26T14:53:16;13.55;;;7.13;;
24873;SDS011;12945;42.648;23.370;2023-06-26T14:55:41;11.30;;;6.90;;
24873;SDS011;12945;42.648;23.370;2023-06-26T14:58:07;9.32;;;7.10;;
24873;SDS011;12945;42.648;23.370;2023-06-26T15:00:32;10.60;;;6.68;;
24873;SDS011;12945;42.648;23.370;2023-06-26T15:02:57;11.68;;;7.45;;
24873;SDS011;12945;42.648;23.370;2023-06-26T15:05:23;9.50;;;6.60;;
24873;SDS011;12945;42.648;23.370;2023-06-26T15:07:48;9.98;;;7.18;;
24873;SDS011;12945;42.648;23.370;2023-06-26T15:10:14;10.00;;;6.63;;
24873;SDS011;12945;42.648;23.370;2023-06-26T15:12:39;12.63;;;6.85;;
24873;SDS011;12945;42.648;23.370;2023-06-26T15:15:05;10.90;;;6.93;;
24873;SDS011;12945;42.648;23.370;2023-06-26T15:17:32;8.65;;;6.65;;
24873;SDS011;12945;42.648;23.370;2023-06-26T15:19:58;6.88;;;5.65;;
24873;SDS011;12945;42.648;23.370;2023-06-26T15:22:25;10.63;;;6.32;;
24873;SDS011;12945;42.648;23.370;2023-06-26T15:24:50;7.88;;;5.40;;
24873;SDS011;12945;42.648;23.370;2023-06-26T15:27:16;8.60;;;5.28;;
24873;SDS011;12945;42.648;23.370;2023-06-26T15:29:41;6.60;;;5.90;;
24873;SDS011;12945;42.648;23.370;2023-06-26T15:32:07;7.72;;;6.28;;
24873;SDS011;12945;42.648;23.370;2023-06-26T15:34:32;7.95;;;6.07;;
24873;SDS011;12945;42.648;23.370;2023-06-26T15:36:57;8.50;;;6.90;;
24873;SDS011;12945;42.648;23.370;2023-06-26T15:39:23;8.02;;;6.45;;
24873;SDS011;12945;42.648;23.370;2023-06-26T15:41:48;7.82;;;6.40;;
24873;SDS011;12945;42.648;23.370;2023-06-26T15:44:14;9.10;;;6.72;;
24873;SDS011;12945;42.648;23.370;2023-06-26T15:46:39;8.70;;;6.43;;
24873;SDS011;12945;42.648;23.370;2023-06-26T15:49:04;8.77;;;6.63;;
24873;SDS011;12945;42.648;23.370;2023-06-26T15:51:30;11.63;;;6.95;;
24873;SDS011;12945;42.648;23.370;2023-06-26T15:53:57;8.90;;;6.93;;
24873;SDS011;12945;42.648;23.370;2023-06-26T15:56:22;8.32;;;6.10;;
24873;SDS011;12945;42.648;23.370;2023-06-26T15:58:48;9.50;;;6.32;;
24873;SDS011;12945;42.648;23.370;2023-06-26T16:01:13;14.32;;;6.53;;
24873;SDS011;12945;42.648;23.370;2023-06-26T16:03:39;16.08;;;7.22;;
24873;SDS011;12945;42.648;23.370;2023-06-26T16:06:05;12.13;;;7.20;;
24873;SDS011;12945;42.648;23.370;2023-06-26T16:08:30;14.57;;;7.20;;
24873;SDS011;12945;42.648;23.370;2023-06-26T16:10:56;10.18;;;6.63;;
24873;SDS011;12945;42.648;23.370;2023-06-26T16:13:21;16.80;;;7.55;;
24873;SDS011;12945;42.648;23.370;2023-06-26T16:15:47;12.63;;;6.90;;
24873;SDS011;12945;42.648;23.370;2023-06-26T16:18:12;9.88;;;7.18;;
24873;SDS011;12945;42.648;23.370;2023-06-26T16:20:38;9.07;;;7.20;;
24873;SDS011;12945;42.648;23.370;2023-06-26T16:23:03;12.50;;;7.72;;
24873;SDS011;12945;42.648;23.370;2023-06-26T16:25:29;13.13;;;7.50;;
24873;SDS011;12945;42.648;23.370;2023-06-26T16:27:54;10.45;;;7.53;;
24873;SDS011;12945;42.648;23.370;2023-06-26T16:30:19;11.25;;;7.57;;
24873;SDS011;12945;42.648;23.370;2023-06-26T16:32:46;12.45;;;8.50;;